EBLGEBBR

Guest
Details From EBLG - Liege
To EBBR - Brussels Airport
Flight Number -
Tags generated
Created
Modified
Stats Distance 40 nm / 73 km
Max Altitude 300 ft / 91 m
Waypoints 3
Social Downloads 6
Likes 0
Share VATSIM

Download

Looking for another format? Having issues loading an existing format? Contact us
Advertisement - Login to hide

Notes

Basic altitude profile: - Ascent Rate: 2500ft/min - Ascent Speed: 250kts - Cruise Altitude: 35000ft - Cruise Speed: 420kts - Descent Rate: 1500ft/min - Descent Speed: 250kts Options: - Use NATs: yes - Use PACOTS: yes - Use low airways: yes - Use high airways: yes

Route

EBLG BUB EBBR

ID Type Via Altitude Latitude Longitude Leg Dist Tot Dist Heading (true) Name
O EBLG APT - 0 ft / 0 m 50.63812˚ 5.44314˚ - 0 nm - Liege
BUB VOR - 300 ft / 91 m 50.90222˚ 4.53806˚ 37 nm 37 nm 295° / 294° BRUSSELS VOR-DME
O EBBR APT - 0 ft / 0 m 50.89995˚ 4.49281˚ 1 nm 39 nm 265° / 265° Brussels Airport

Altitude Profile

Advertisement - Login to hide

EBLG

Details ICAO EBLG (LGG)
Name Liege
Region Belgium
Timezone Europe/Brussels (UTC+2.0)
Stats Elevation 645 ft / 197 m (AMSL)
Location 50.638120° 5.443140°
Runways 2
Magnetic Variation 1.507° E

METAR

EBLG 171450Z 29011KT 260V320 9999 SCT048 26/12 Q1016 NOSIG

Decode

TAF

TAF EBLG 171100Z 1712/1818 28006KT CAVOK PROB30 TEMPO 1713/1716 -TSRA

Decode

Departure Runways

ID Width Length Bearing (true) Bearing (mag) Surface Threshold Offset Overrun Length
05L 148 ft / 45 m 7,664 ft / 2,336 m 44.99° 43.48° Asphalt 151 ft / 46 m 0 ft / 0 m
05R 148 ft / 45 m 10,792 ft / 3,290 m 44.99° 43.48° Asphalt 151 ft / 46 m 0 ft / 0 m
23L 148 ft / 45 m 10,792 ft / 3,290 m 225.01° 223.50° Asphalt 151 ft / 46 m 0 ft / 0 m
23R 148 ft / 45 m 7,664 ft / 2,336 m 225.01° 223.50° Asphalt 151 ft / 46 m 0 ft / 0 m

EBBR

Details ICAO EBBR (BRU)
Name Brussels Airport
Region Belgium
Timezone Europe/Brussels (UTC+2.0)
Stats Elevation 184 ft / 56 m (AMSL)
Location 50.899948° 4.492814°
Runways 3
Magnetic Variation 1.204° E

METAR

EBBR 171450Z 26010KT 220V280 CAVOK 26/09 Q1016 NOSIG

Decode

TAF

TAF EBBR 171100Z 1712/1818 29006KT CAVOK= TAF AMD KRND 171125Z 1711/1815 20006KT 9999 BKN012 QNH3003INS TEMPO 1711/1715 SCT012 BECMG 1714/1715 20009KT 9999 SCT020 QNH3006INS BECMG 1717/1718 19010G15KT 9999 SKC QNH2993INS BECMG 1803/1804 17009KT 9999 SKC QNH2998INS TX38/1721Z TN23/1711Z

Decode

Destination Runways

ID Width Length Bearing (true) Bearing (mag) Surface Threshold Offset Overrun Length
02 164 ft / 50 m 9,896 ft / 3,016 m 14.41° 13.21° Asphalt 249 ft / 76 m 0 ft / 0 m
07L 148 ft / 45 m 12,106 ft / 3,690 m 65.16° 63.96° Asphalt 801 ft / 244 m 0 ft / 0 m
07R 148 ft / 45 m 10,703 ft / 3,262 m 69.90° 68.70° Asphalt 499 ft / 152 m 0 ft / 0 m
20 164 ft / 50 m 9,896 ft / 3,016 m 194.42° 193.22° Asphalt 751 ft / 229 m 0 ft / 0 m
25L 148 ft / 45 m 10,703 ft / 3,262 m 249.93° 248.73° Asphalt 499 ft / 152 m 0 ft / 0 m
25R 148 ft / 45 m 12,106 ft / 3,690 m 245.20° 244.00° Asphalt 801 ft / 244 m 0 ft / 0 m

Approach Navaids

Runway Type Ident Frequency Range Bearing (true) Bearing (mag) Slope Elevation
02 Localiser IBX 109.90 MHz 18 nm / 33 km 14.41° 13.21° - 184 ft / 56 m (AMSL)
02 Glidescope IBX 109.90 MHz 10 nm / 19 km 14.41° 13.21° 3.00° 184 ft / 56 m (AMSL)
02 DME IBX 109.90 MHz 18 nm / 33 km - - - 184 ft / 56 m (AMSL)
20 Localiser IBM 111.15 MHz 18 nm / 33 km 194.48° 193.27° - 184 ft / 56 m (AMSL)
20 Glidescope IBM 111.15 MHz 10 nm / 19 km 194.41° 193.21° 3.00° 184 ft / 56 m (AMSL)
20 DME IBM 111.15 MHz 18 nm / 33 km - - - 184 ft / 56 m (AMSL)
25L Localiser IBL 110.35 MHz 18 nm / 33 km 249.89° 248.68° - 184 ft / 56 m (AMSL)
25L Glidescope IBL 110.35 MHz 10 nm / 19 km 249.91° 248.71° 3.00° 184 ft / 56 m (AMSL)
25R Localiser IBR 108.90 MHz 18 nm / 33 km 245.34° 244.13° - 184 ft / 56 m (AMSL)
25R Glidescope IBR 108.90 MHz 10 nm / 19 km 245.18° 243.98° 3.00° 184 ft / 56 m (AMSL)
25R DME IBR 108.90 MHz 18 nm / 33 km - - - 184 ft / 56 m (AMSL)

Popular Alternatives